Laynesville, Kentucky
Current Conditions -  °F | °C
As of 2:55 AM on Friday 19 Dec 2014 (Local Time) from KPBX Reporting Station
Overcast Overcast  
Wind Chill: 30°   Ceiling: 1300
Heat Index: 30°   Visibility: 10mi
Dew Point: 25°   Wind: 3mph
Humidity: 81%   Direction: 310°NW
Pressure: 30.19"   Gusts: NA
Location:  37.4843°N, 82.6492°W
Report Text: KPBX 190755Z AUTO 31003KT 10SM BKN013 OVC060 M01/M04 A3019 RMK AO2 T10121040
Loading
Personal Weather Stations






























Interactive Weather Map New forecast layout! Learn more

10-Day Weather Forecast

Advertisements
Track Severe Weather on mobile